createdAt,value
2018-06-22T00:00:18.541Z,68.02
2018-06-22T00:01:18.819Z,69.35
2018-06-22T00:02:18.496Z,68.98
2018-06-22T00:03:18.488Z,68.12
2018-06-22T00:04:18.457Z,68.63
2018-06-22T00:05:18.447Z,70.15
2018-06-22T00:06:18.423Z,69.83
2018-06-22T00:07:18.701Z,69.48
2018-06-22T00:08:18.385Z,68.59
2018-06-22T00:09:18.440Z,67.74
2018-06-22T00:10:18.346Z,68.72
2018-06-22T00:11:18.326Z,69.83
2018-06-22T00:12:18.309Z,69.93
2018-06-22T00:13:18.590Z,70.34
2018-06-22T00:14:18.274Z,69.58
2018-06-22T00:15:18.266Z,68.72
2018-06-22T00:16:18.246Z,69.48
2018-06-22T00:17:18.225Z,69.68
2018-06-22T00:19:18.481Z,71.68
2018-06-22T00:20:18.162Z,71.77
2018-06-22T00:21:18.150Z,71.58
2018-06-22T00:22:18.127Z,72.82
2018-06-22T00:23:18.114Z,70.92
2018-06-22T00:24:18.091Z,72.82
2018-06-22T00:25:18.073Z,72.44
2018-06-22T00:26:18.352Z,72.25
2018-06-22T00:27:18.034Z,71.30
2018-06-22T00:28:18.014Z,70.92
2018-06-22T00:29:17.997Z,72.53
2018-06-22T00:30:17.981Z,72.06
2018-06-22T00:31:18.311Z,72.34
2018-06-22T00:33:18.224Z,70.63
2018-06-22T00:34:17.904Z,71.30
2018-06-22T00:35:17.885Z,71.39
2018-06-22T00:36:17.865Z,70.53
2018-06-22T00:37:17.846Z,70.63
2018-06-22T00:38:17.914Z,70.72
2018-06-22T00:39:17.812Z,69.96
2018-06-22T00:40:18.096Z,71.11
2018-06-22T00:41:17.776Z,72.44
2018-06-22T00:42:17.762Z,70.72
2018-06-22T00:43:17.754Z,70.92
2018-06-22T00:44:17.722Z,70.82
2018-06-22T00:45:17.701Z,70.15
2018-06-22T00:46:17.685Z,70.25
2018-06-22T00:47:17.966Z,70.72
2018-06-22T00:48:17.650Z,71.30
2018-06-22T00:49:17.635Z,71.58
2018-06-22T00:50:17.612Z,71.30
2018-06-22T00:51:17.599Z,71.30
2018-06-22T00:52:17.573Z,72.44
2018-06-22T00:53:17.553Z,71.48
2018-06-22T00:54:17.835Z,71.58
2018-06-22T00:55:17.519Z,71.96
2018-06-22T00:56:17.503Z,72.16
2018-06-22T00:57:17.482Z,72.82
2018-06-22T00:58:17.466Z,71.39
2018-06-22T00:59:17.448Z,71.58
2018-06-22T01:00:17.432Z,70.25
2018-06-22T01:01:17.708Z,70.92
2018-06-22T01:02:17.391Z,70.25
2018-06-22T01:03:17.384Z,71.20
2018-06-22T01:04:17.384Z,71.11
2018-06-22T01:05:17.344Z,70.34
2018-06-22T01:06:17.318Z,73.39
2018-06-22T01:07:17.598Z,71.96
2018-06-22T01:08:17.282Z,72.06
2018-06-22T01:09:17.271Z,72.06
2018-06-22T01:10:17.251Z,73.58
2018-06-22T01:11:17.231Z,72.25
2018-06-22T01:12:17.212Z,72.25
2018-06-22T01:13:17.489Z,71.30
2018-06-22T01:14:17.171Z,69.39
2018-06-22T01:15:17.159Z,70.44
2018-06-22T01:16:17.135Z,69.39
2018-06-22T01:17:17.114Z,70.06
2018-06-22T01:18:17.099Z,68.72
2018-06-22T01:19:17.377Z,68.24
2018-06-22T01:21:17.043Z,67.20
2018-06-22T01:22:17.093Z,70.25
2018-06-22T01:23:17.011Z,69.87
2018-06-22T01:24:17.046Z,68.72
2018-06-22T01:25:17.269Z,68.44
2018-06-22T01:26:16.959Z,67.77
2018-06-22T01:27:16.940Z,68.72
2018-06-22T01:28:16.917Z,68.44
2018-06-22T01:29:16.894Z,68.15
2018-06-22T01:30:17.034Z,67.39
2018-06-22T01:31:17.321Z,67.68
2018-06-22T01:32:16.960Z,66.05
2018-06-22T01:33:16.936Z,65.77
2018-06-22T01:34:16.803Z,67.29
2018-06-22T01:35:16.784Z,65.96
2018-06-22T01:36:16.775Z,65.67
2018-06-22T01:37:17.049Z,65.00
2018-06-22T01:38:16.732Z,65.29
2018-06-22T01:39:16.715Z,65.58
2018-06-22T01:40:16.703Z,64.72
2018-06-22T01:41:16.685Z,64.43
2018-06-22T01:42:16.656Z,64.53
2018-06-22T01:43:16.944Z,64.81
2018-06-22T01:44:16.619Z,64.43
2018-06-22T01:46:16.582Z,65.20
2018-06-22T01:47:16.570Z,65.58
2018-06-22T01:48:16.544Z,65.00
2018-06-22T01:49:16.529Z,66.24
2018-06-22T01:50:16.808Z,66.24
2018-06-22T01:51:16.493Z,65.86
2018-06-22T01:52:16.473Z,66.44
2018-06-22T01:53:16.453Z,64.62
2018-06-22T01:54:16.436Z,64.43
2018-06-22T01:55:16.416Z,65.48
2018-06-22T01:56:16.408Z,65.67
2018-06-22T01:57:16.683Z,65.58
2018-06-22T01:58:16.376Z,65.20
2018-06-22T02:00:16.323Z,63.86
2018-06-22T02:01:16.354Z,65.00
2018-06-22T02:02:16.293Z,65.48
2018-06-22T02:03:16.269Z,64.91
2018-06-22T02:04:16.551Z,64.43
2018-06-22T02:05:16.230Z,65.29
2018-06-22T02:06:16.217Z,65.67
2018-06-22T02:07:16.197Z,65.67
2018-06-22T02:08:16.179Z,64.62
2018-06-22T02:09:16.159Z,65.29
2018-06-22T02:10:16.144Z,65.48
2018-06-22T02:11:16.423Z,65.39
2018-06-22T02:12:16.102Z,65.10
2018-06-22T02:13:16.114Z,64.24
2018-06-22T02:14:16.067Z,63.86
2018-06-22T02:15:16.049Z,63.86
2018-06-22T02:16:16.033Z,63.67
2018-06-22T02:17:16.012Z,63.29
2018-06-22T02:18:16.298Z,62.91
2018-06-22T02:19:15.980Z,62.91
2018-06-22T02:20:15.963Z,62.91
2018-06-22T02:21:15.946Z,62.81
2018-06-22T02:22:15.921Z,61.38
2018-06-22T02:23:15.900Z,61.57
2018-06-22T02:24:15.881Z,61.57
2018-06-22T02:25:16.175Z,61.86
2018-06-22T02:26:15.847Z,61.19
2018-06-22T02:27:15.829Z,61.48
2018-06-22T02:28:15.810Z,59.28
2018-06-22T02:29:15.793Z,59.48
2018-06-22T02:30:15.772Z,58.81
2018-06-22T02:31:15.910Z,59.38
2018-06-22T02:32:16.038Z,58.33
2018-06-22T02:33:15.715Z,57.00
2018-06-22T02:34:15.701Z,57.19
2018-06-22T02:35:15.679Z,55.95
2018-06-22T02:36:15.662Z,56.43
2018-06-22T02:37:15.694Z,55.76
2018-06-22T02:38:15.928Z,55.66
2018-06-22T02:39:15.610Z,54.80
2018-06-22T02:40:15.599Z,54.52
2018-06-22T02:41:15.576Z,53.19
2018-06-22T02:42:15.551Z,54.61
2018-06-22T02:43:15.537Z,55.66
2018-06-22T02:44:15.818Z,55.76
2018-06-22T02:45:15.503Z,55.57
2018-06-22T02:46:15.484Z,55.57
2018-06-22T02:47:15.465Z,54.14
2018-06-22T02:48:15.442Z,55.57
2018-06-22T02:49:15.428Z,55.28
2018-06-22T02:50:15.705Z,55.00
2018-06-22T02:51:15.390Z,53.76
2018-06-22T02:52:15.365Z,54.61
2018-06-22T02:53:15.347Z,55.09
2018-06-22T02:54:15.332Z,54.33
2018-06-22T02:55:15.312Z,54.24
2018-06-22T02:56:15.597Z,53.09
2018-06-22T02:57:15.327Z,54.04
2018-06-22T02:58:15.263Z,50.90
2018-06-22T02:59:15.254Z,49.37
2018-06-22T03:00:15.233Z,48.23
2018-06-22T03:01:15.211Z,45.65
2018-06-22T03:02:15.486Z,44.51
2018-06-22T03:03:15.165Z,45.56
2018-06-22T03:04:15.146Z,44.13
2018-06-22T03:05:15.129Z,44.13
2018-06-22T03:06:15.122Z,46.61
2018-06-22T03:07:15.107Z,44.80
2018-06-22T03:08:15.372Z,43.37
2018-06-22T03:09:15.060Z,43.84
2018-06-22T03:10:15.041Z,43.08
2018-06-22T03:11:15.019Z,44.32
2018-06-22T03:12:14.997Z,44.89
2018-06-22T03:13:14.989Z,44.80
2018-06-22T03:14:15.457Z,44.60
2018-06-22T03:15:14.943Z,44.13
2018-06-22T03:16:14.926Z,48.90
2018-06-22T03:17:14.913Z,44.60
2018-06-22T03:18:14.886Z,46.04
2018-06-22T03:19:14.878Z,45.65
2018-06-22T03:20:14.856Z,45.94
2018-06-22T03:21:15.140Z,46.80
2018-06-22T03:22:14.826Z,46.32
2018-06-22T03:23:14.801Z,46.23
2018-06-22T03:24:14.776Z,48.32
2018-06-22T03:25:14.780Z,50.23
2018-06-22T03:26:14.739Z,50.61
2018-06-22T03:27:14.726Z,49.47
2018-06-22T03:28:15.029Z,50.32
2018-06-22T03:29:14.699Z,48.80
2018-06-22T03:30:14.669Z,51.47
2018-06-22T03:31:14.646Z,50.71
2018-06-22T03:32:14.635Z,48.90
2018-06-22T03:34:14.895Z,46.89
2018-06-22T03:35:14.597Z,44.13
2018-06-22T03:36:14.556Z,46.80
2018-06-22T03:37:14.537Z,44.42
2018-06-22T03:38:14.526Z,43.37
2018-06-22T03:39:14.501Z,43.75
2018-06-22T03:40:14.482Z,40.60
2018-06-22T03:41:14.776Z,38.79
2018-06-22T03:42:14.464Z,35.36
2018-06-22T03:43:14.434Z,32.60
2018-06-22T03:44:14.409Z,31.26
2018-06-22T03:45:14.420Z,28.58
2018-06-22T03:46:14.384Z,26.48
2018-06-22T03:47:14.369Z,25.91
2018-06-22T03:48:14.641Z,23.82
2018-06-22T03:49:14.368Z,24.96
2018-06-22T03:50:14.304Z,22.19
2018-06-22T03:51:14.283Z,22.29
2018-06-22T03:52:14.257Z,21.53
2018-06-22T03:53:14.240Z,21.44
2018-06-22T03:54:14.223Z,19.62
2018-06-22T03:55:14.515Z,18.10
2018-06-22T03:56:14.183Z,16.67
2018-06-22T03:57:14.168Z,15.24
2018-06-22T03:58:14.153Z,14.86
2018-06-22T03:59:14.130Z,13.62
2018-06-22T04:00:14.116Z,12.95
2018-06-22T04:01:14.098Z,12.67
2018-06-22T04:02:14.376Z,11.71
2018-06-22T04:03:14.054Z,11.62
2018-06-22T04:04:14.052Z,11.05
2018-06-22T04:05:14.045Z,10.57
2018-06-22T04:06:14.001Z,10.48
2018-06-22T04:07:13.986Z,10.28
2018-06-22T04:08:14.310Z,9.72
2018-06-22T04:09:14.060Z,9.52
2018-06-22T04:10:13.958Z,9.62
2018-06-22T04:11:14.011Z,9.62
2018-06-22T04:12:13.989Z,8.86
2018-06-22T04:13:13.868Z,10.19
2018-06-22T04:14:14.264Z,9.91
2018-06-22T04:15:13.830Z,10.76
2018-06-22T04:16:13.825Z,10.96
2018-06-22T04:17:13.799Z,10.57
2018-06-22T04:18:13.809Z,9.91
2018-06-22T04:19:13.767Z,10.28
2018-06-22T04:20:14.049Z,10.67
2018-06-22T04:21:13.720Z,10.48
2018-06-22T04:22:13.704Z,10.76
2018-06-22T04:23:13.684Z,11.81
2018-06-22T04:24:13.786Z,11.43
2018-06-22T04:25:13.662Z,10.58
2018-06-22T04:26:13.925Z,11.05
2018-06-22T04:27:13.607Z,11.52
2018-06-22T04:28:13.589Z,10.00
2018-06-22T04:29:13.653Z,9.72
2018-06-22T04:30:13.549Z,10.38
2018-06-22T04:31:13.532Z,10.48
2018-06-22T04:32:13.821Z,9.62
2018-06-22T04:33:13.501Z,9.81
2018-06-22T04:34:13.483Z,10.76
2018-06-22T04:35:13.457Z,10.76
2018-06-22T04:36:13.442Z,10.77
2018-06-22T04:37:13.427Z,12.48
2018-06-22T04:38:13.704Z,12.01
2018-06-22T04:39:13.396Z,11.91
2018-06-22T04:40:13.375Z,12.48
2018-06-22T04:41:13.351Z,11.63
2018-06-22T04:42:13.334Z,12.29
2018-06-22T04:43:13.365Z,12.58
2018-06-22T04:44:13.293Z,12.48
2018-06-22T04:45:13.581Z,14.87
2018-06-22T04:46:13.258Z,15.34
2018-06-22T04:47:13.242Z,14.77
2018-06-22T04:48:13.224Z,18.01
2018-06-22T04:49:13.206Z,18.87
2018-06-22T04:50:13.314Z,20.87
2018-06-22T04:51:13.169Z,19.73
2018-06-22T04:52:13.454Z,18.79
2018-06-22T04:53:13.134Z,19.73
2018-06-22T04:54:13.240Z,20.60
2018-06-22T04:55:15.114Z,19.82
2018-06-22T04:56:13.125Z,22.97
2018-06-22T04:57:13.059Z,26.59
2018-06-22T04:58:13.041Z,23.25
2018-06-22T04:59:13.330Z,21.64
2018-06-22T05:00:13.010Z,20.50
2018-06-22T05:01:12.988Z,19.25
2018-06-22T05:02:12.977Z,18.77
2018-06-22T05:03:12.962Z,19.35
2018-06-22T05:04:12.940Z,19.73
2018-06-22T05:05:12.937Z,18.59
2018-06-22T05:06:13.202Z,14.68
2018-06-22T05:07:12.884Z,14.48
2018-06-22T05:08:12.874Z,14.68
2018-06-22T05:09:12.853Z,14.96
2018-06-22T05:10:12.835Z,14.58
2018-06-22T05:11:12.843Z,14.68
2018-06-22T05:12:13.109Z,16.87
2018-06-22T05:13:12.780Z,16.11
2018-06-22T05:14:12.761Z,16.01
2018-06-22T05:15:12.748Z,18.30
2018-06-22T05:16:12.758Z,18.20
2018-06-22T05:17:12.711Z,18.77
2018-06-22T05:18:12.699Z,19.35
2018-06-22T05:19:12.973Z,18.21
2018-06-22T05:20:12.656Z,18.21
2018-06-22T05:21:12.640Z,18.40
2018-06-22T05:22:12.618Z,18.59
2018-06-22T05:23:12.603Z,22.30
2018-06-22T05:25:12.881Z,20.87
2018-06-22T05:26:12.723Z,21.64
2018-06-22T05:27:12.537Z,19.64
2018-06-22T05:28:12.518Z,19.92
2018-06-22T05:29:12.537Z,20.01
2018-06-22T05:30:12.495Z,19.25
2018-06-22T05:31:12.902Z,17.16
2018-06-22T05:32:12.462Z,17.83
2018-06-22T05:33:12.437Z,20.69
2018-06-22T05:34:12.449Z,19.07
2018-06-22T05:35:12.409Z,20.21
2018-06-22T05:36:12.376Z,20.69
2018-06-22T05:37:12.369Z,20.88
2018-06-22T05:39:12.330Z,22.50
2018-06-22T05:41:12.289Z,23.36
2018-06-22T05:44:12.235Z,22.69
2018-06-22T05:45:12.220Z,26.61
2018-06-22T05:46:12.204Z,22.89
2018-06-22T05:47:12.180Z,23.17
2018-06-22T05:48:12.173Z,26.61
2018-06-22T05:49:12.487Z,26.42
2018-06-22T05:50:12.130Z,26.70
2018-06-22T05:51:12.121Z,24.51
2018-06-22T05:52:12.093Z,29.18
2018-06-22T05:53:12.076Z,30.23
2018-06-22T05:54:12.068Z,28.03
2018-06-22T05:55:12.110Z,26.32
2018-06-22T05:56:12.030Z,31.37
2018-06-22T05:57:12.022Z,32.04
2018-06-22T05:58:11.996Z,30.80
2018-06-22T05:59:11.985Z,29.18
2018-06-22T06:00:12.269Z,32.90
2018-06-22T06:01:11.942Z,29.94
2018-06-22T06:02:11.926Z,30.80
2018-06-22T06:03:11.909Z,31.09
2018-06-22T06:04:11.891Z,32.90
2018-06-22T06:05:11.884Z,30.04
2018-06-22T06:06:11.859Z,28.14
2018-06-22T06:07:12.163Z,36.35
2018-06-22T06:08:11.821Z,35.39
2018-06-22T06:09:11.814Z,39.02
2018-06-22T06:10:11.796Z,39.69
2018-06-22T06:11:11.787Z,44.46
2018-06-22T06:12:11.756Z,39.69
2018-06-22T06:13:12.048Z,40.83
2018-06-22T06:14:11.765Z,47.71
2018-06-22T06:15:11.708Z,47.23
2018-06-22T06:16:11.697Z,45.89
2018-06-22T06:17:11.677Z,46.25
2018-06-22T06:18:11.677Z,47.03
2018-06-22T06:19:12.339Z,45.29
2018-06-22T06:20:11.704Z,42.17
2018-06-22T06:21:11.609Z,46.56
2018-06-22T06:22:11.594Z,43.98
2018-06-22T06:23:11.592Z,47.61
2018-06-22T06:24:11.563Z,43.60
2018-06-22T06:25:11.546Z,44.08
2018-06-22T06:26:11.834Z,42.65
2018-06-22T06:27:11.572Z,43.60
2018-06-22T06:28:11.490Z,43.89
2018-06-22T06:29:11.497Z,50.57
2018-06-22T06:30:11.461Z,49.62
2018-06-22T06:31:11.497Z,51.81
2018-06-22T06:32:11.748Z,48.28
2018-06-22T06:33:11.718Z,53.53
2018-06-22T06:34:12.121Z,56.01
2018-06-22T06:35:11.768Z,53.05
2018-06-22T06:36:11.373Z,52.50
2018-06-22T06:37:11.394Z,52.95
2018-06-22T06:38:11.408Z,54.13
2018-06-22T06:39:15.091Z,60.11
2018-06-22T06:40:12.797Z,61.35
2018-06-22T06:41:12.005Z,62.30
2018-06-22T06:42:11.311Z,59.73
2018-06-22T06:43:11.249Z,55.53
2018-06-22T06:44:11.244Z,57.15
2018-06-22T06:45:11.523Z,56.10
2018-06-22T06:46:11.284Z,57.37
2018-06-22T06:48:11.184Z,53.17
2018-06-22T06:49:11.152Z,58.90
2018-06-22T06:50:11.244Z,60.49
2018-06-22T06:51:11.431Z,62.78
2018-06-22T06:52:11.190Z,62.68
2018-06-22T06:53:11.212Z,61.38
2018-06-22T06:54:11.178Z,67.77
2018-06-22T06:55:11.055Z,63.10
2018-06-22T06:56:11.046Z,61.76
2018-06-22T06:57:11.324Z,63.67
2018-06-22T06:58:11.029Z,64.05
2018-06-22T06:59:11.043Z,62.24
2018-06-22T07:00:10.980Z,66.72
2018-06-22T07:01:10.964Z,65.10
2018-06-22T07:02:10.990Z,65.67
2018-06-22T07:03:11.232Z,64.34
2018-06-22T07:04:10.918Z,68.63
2018-06-22T07:05:10.902Z,69.78
2018-06-22T07:06:10.896Z,61.00
2018-06-22T07:07:10.874Z,58.04
2018-06-22T07:08:10.858Z,60.71
2018-06-22T07:09:11.134Z,61.57
2018-06-22T07:10:10.856Z,64.05
2018-06-22T07:11:10.814Z,59.53
2018-06-22T07:12:10.787Z,61.83
2018-06-22T07:13:10.784Z,60.21
2018-06-22T07:14:10.757Z,52.76
2018-06-22T07:15:11.053Z,51.43
2018-06-22T07:16:10.742Z,54.77
2018-06-22T07:17:10.770Z,54.29
2018-06-22T07:18:10.691Z,51.54
2018-06-22T07:21:10.945Z,61.86
2018-06-22T07:22:10.664Z,61.38
2018-06-22T07:23:10.618Z,61.19
2018-06-22T07:24:10.594Z,60.61
2018-06-22T07:25:10.591Z,59.38
2018-06-22T07:26:10.573Z,57.75
2018-06-22T07:27:10.558Z,62.43
2018-06-22T07:28:10.847Z,65.30
2018-06-22T07:29:10.553Z,67.30
2018-06-22T07:31:10.491Z,68.44
2018-06-22T07:32:10.470Z,77.84
2018-06-22T07:33:10.453Z,72.78
2018-06-22T07:34:10.751Z,73.92
2018-06-22T07:35:10.436Z,71.44
2018-06-22T07:36:10.418Z,75.30
2018-06-22T07:37:10.394Z,82.23
2018-06-22T07:38:10.379Z,79.31
2018-06-22T07:39:10.390Z,77.69
2018-06-22T07:40:10.666Z,78.51
2018-06-22T07:41:10.394Z,75.54
2018-06-22T07:42:10.331Z,71.02
2018-06-22T07:43:10.314Z,66.98
2018-06-22T07:44:10.304Z,65.55
2018-06-22T07:45:10.278Z,66.92
2018-06-22T07:46:10.570Z,79.65
2018-06-22T07:47:10.243Z,85.71
2018-06-22T07:48:10.233Z,89.67
2018-06-22T07:49:10.339Z,91.39
2018-06-22T07:50:10.689Z,95.27
2018-06-22T07:51:10.195Z,96.13
2018-06-22T07:52:10.468Z,90.06
2018-06-22T07:53:10.163Z,91.49
2018-06-22T07:54:10.143Z,94.89
2018-06-22T07:55:10.137Z,91.25
2018-06-22T07:56:10.116Z,95.94
2018-06-22T07:58:10.388Z,88.20
2018-06-22T07:59:10.099Z,88.01
2018-06-22T08:00:10.055Z,90.49
2018-06-22T08:01:10.112Z,92.02
2018-06-22T08:02:10.035Z,92.21
2018-06-22T08:03:10.013Z,92.69
2018-06-22T08:04:10.300Z,91.39
2018-06-22T08:05:09.983Z,97.13
2018-06-22T08:06:09.994Z,92.45
2018-06-22T08:07:09.954Z,89.01
2018-06-22T08:08:09.942Z,93.21
2018-06-22T08:09:09.938Z,95.32
2018-06-22T08:10:09.925Z,94.93
2018-06-22T08:11:09.909Z,97.61
2018-06-22T08:12:09.883Z,99.04
2018-06-22T08:13:09.873Z,99.99
2018-06-22T08:14:09.867Z,99.14
2018-06-22T08:15:09.846Z,99.99
2018-06-22T08:16:09.842Z,99.43
2018-06-22T08:17:10.121Z,99.99
2018-06-22T08:18:09.811Z,99.99
2018-06-22T08:19:09.792Z,99.62
2018-06-22T08:20:09.947Z,96.37
2018-06-22T08:21:09.980Z,99.24
2018-06-22T08:22:09.947Z,99.99
2018-06-22T08:23:10.238Z,99.99
2018-06-22T08:24:09.800Z,99.99
2018-06-22T08:25:09.950Z,99.99
2018-06-22T08:26:09.836Z,99.99
2018-06-22T08:27:10.005Z,99.99
2018-06-22T08:28:10.010Z,99.99
2018-06-22T08:30:10.129Z,99.99
2018-06-22T08:31:09.835Z,99.99
2018-06-22T08:32:09.750Z,99.99
2018-06-22T08:33:09.618Z,99.99
2018-06-22T08:34:09.596Z,99.99
2018-06-22T08:35:11.049Z,99.99
2018-06-22T08:36:10.145Z,99.99
2018-06-22T08:37:09.836Z,99.99
2018-06-22T08:38:09.546Z,99.99
2018-06-22T08:39:09.592Z,99.99
2018-06-22T08:40:09.536Z,99.99
2018-06-22T08:41:09.519Z,99.99
2018-06-22T08:42:09.838Z,98.33
2018-06-22T08:43:09.484Z,99.99
2018-06-22T08:44:09.474Z,99.99
2018-06-22T08:45:09.461Z,99.99
2018-06-22T08:46:09.461Z,99.99
2018-06-22T08:48:09.727Z,99.99
2018-06-22T08:49:09.411Z,99.99
2018-06-22T08:50:09.399Z,99.99
2018-06-22T08:51:09.405Z,99.99
2018-06-22T08:52:09.375Z,99.99
2018-06-22T08:53:09.421Z,99.99
2018-06-22T08:54:09.363Z,99.99
2018-06-22T08:55:09.656Z,99.99
2018-06-22T08:57:09.332Z,99.99
2018-06-22T08:58:09.314Z,99.99
2018-06-22T08:59:09.310Z,99.99
2018-06-22T09:00:09.291Z,99.99
2018-06-22T09:01:09.285Z,99.99
2018-06-22T09:02:09.575Z,99.99
2018-06-22T09:03:09.251Z,99.99
2018-06-22T09:04:09.238Z,99.99
2018-06-22T09:05:09.236Z,99.99
2018-06-22T09:06:09.216Z,99.99
2018-06-22T09:07:09.204Z,99.99
2018-06-22T09:08:09.536Z,99.99
2018-06-22T09:09:09.192Z,99.99
2018-06-22T09:10:09.200Z,99.99
2018-06-22T09:11:09.158Z,99.99
2018-06-22T09:12:09.176Z,99.99
2018-06-22T09:13:09.860Z,99.99
2018-06-22T09:14:09.615Z,99.99
2018-06-22T09:15:09.154Z,93.59
2018-06-22T09:16:09.133Z,93.44
2018-06-22T09:17:09.111Z,96.18
2018-06-22T09:18:09.070Z,99.73
2018-06-22T09:19:09.078Z,99.99
2018-06-22T09:20:09.361Z,99.99
2018-06-22T09:21:09.111Z,99.99
2018-06-22T09:22:09.032Z,99.99
2018-06-22T09:23:09.112Z,99.99
2018-06-22T09:24:09.126Z,99.99
2018-06-22T09:26:09.293Z,99.99
2018-06-22T09:27:08.994Z,99.99
2018-06-22T09:28:08.969Z,99.99
2018-06-22T09:29:09.004Z,99.99
2018-06-22T09:30:08.941Z,99.99
2018-06-22T09:31:08.943Z,99.99
2018-06-22T09:32:09.242Z,99.99
2018-06-22T09:33:08.920Z,99.99
2018-06-22T09:34:08.898Z,98.19
2018-06-22T09:35:09.118Z,94.65
2018-06-22T09:36:09.457Z,93.26
2018-06-22T09:37:09.162Z,88.00
2018-06-22T09:38:09.593Z,82.31
2018-06-22T09:39:09.054Z,77.44
2018-06-22T09:40:09.012Z,76.96
2018-06-22T09:41:08.833Z,82.89
2018-06-22T09:42:08.839Z,76.77
2018-06-22T09:44:09.069Z,79.58
2018-06-22T09:45:08.780Z,92.73
2018-06-22T09:46:08.745Z,94.31
2018-06-22T09:47:08.771Z,88.66
2018-06-22T09:48:08.718Z,92.35
2018-06-22T09:49:08.778Z,91.97
2018-06-22T09:50:08.699Z,93.59
2018-06-22T09:51:08.978Z,93.02
2018-06-22T09:52:08.673Z,92.54
2018-06-22T09:53:08.690Z,93.07
2018-06-22T09:54:08.642Z,97.04
2018-06-22T09:55:08.712Z,98.72
2018-06-22T09:56:08.638Z,99.39
2018-06-22T09:57:08.916Z,99.99
2018-06-22T09:58:08.594Z,99.39
2018-06-22T09:59:08.594Z,99.99
2018-06-22T10:00:08.575Z,99.99
2018-06-22T10:01:08.576Z,99.99
2018-06-22T10:02:08.585Z,99.99
2018-06-22T10:03:08.837Z,99.99
2018-06-22T10:04:08.558Z,99.99
2018-06-22T10:05:08.528Z,99.99
2018-06-22T10:06:08.549Z,99.99
2018-06-22T10:07:08.523Z,99.99
2018-06-22T10:08:08.498Z,99.99
2018-06-22T10:09:08.897Z,99.99
2018-06-22T10:10:08.498Z,99.99
2018-06-22T10:11:08.455Z,99.99
2018-06-22T10:12:08.464Z,99.99
2018-06-22T10:13:08.455Z,99.25
2018-06-22T10:14:08.441Z,99.99
2018-06-22T10:15:08.822Z,99.99
2018-06-22T10:16:08.435Z,99.99
2018-06-22T10:17:08.650Z,99.78
2018-06-22T10:18:08.630Z,99.96
2018-06-22T10:19:09.439Z,99.99
2018-06-22T10:20:09.011Z,99.99
2018-06-22T10:21:08.882Z,99.99
2018-06-22T10:22:08.376Z,99.99
2018-06-22T10:23:08.356Z,99.99
2018-06-22T10:24:08.341Z,98.24
2018-06-22T10:25:08.359Z,98.77
2018-06-22T10:26:08.332Z,96.51
2018-06-22T10:27:08.620Z,90.26
2018-06-22T10:28:08.313Z,94.88
2018-06-22T10:29:08.316Z,99.99
2018-06-22T10:30:08.302Z,98.77
2018-06-22T10:31:08.293Z,96.32
2018-06-22T10:32:08.281Z,90.70
2018-06-22T10:33:08.266Z,92.62
2018-06-22T10:34:08.563Z,93.58
2018-06-22T10:35:08.258Z,96.27
2018-06-22T10:36:08.256Z,96.75
2018-06-22T10:37:08.238Z,92.76
2018-06-22T10:38:08.274Z,84.21
2018-06-22T10:39:08.343Z,87.05
2018-06-22T10:40:08.526Z,87.05
2018-06-22T10:41:08.213Z,84.54
2018-06-22T10:42:08.228Z,82.23
2018-06-22T10:43:08.215Z,79.48
2018-06-22T10:44:08.191Z,76.69
2018-06-22T10:45:08.187Z,74.29
2018-06-22T10:46:08.555Z,73.61
2018-06-22T10:47:08.486Z,79.84
2018-06-22T10:48:08.185Z,80.02
2018-06-22T10:49:08.177Z,77.26
2018-06-22T10:50:08.830Z,75.75
2018-06-22T10:51:08.214Z,83.40
2018-06-22T10:52:08.156Z,87.57
2018-06-22T10:53:08.214Z,80.11
2018-06-22T10:54:08.457Z,80.36
2018-06-22T10:56:08.274Z,83.86
2018-06-22T10:57:09.313Z,75.24
2018-06-22T10:58:08.112Z,77.42
2018-06-22T10:59:08.438Z,78.03
2018-06-22T11:00:08.405Z,76.75
2018-06-22T11:01:08.098Z,75.84
2018-06-22T11:02:08.095Z,81.09
2018-06-22T11:03:08.175Z,85.08
2018-06-22T11:04:08.494Z,82.73
2018-06-22T11:05:08.073Z,80.65
2018-06-22T11:06:08.607Z,80.84
2018-06-22T11:07:08.408Z,82.32
2018-06-22T11:08:08.047Z,82.17
2018-06-22T11:09:08.516Z,84.59
2018-06-22T11:10:09.138Z,81.99
2018-06-22T11:11:08.030Z,84.59
2018-06-22T11:12:08.338Z,81.99
2018-06-22T11:13:08.373Z,82.90
2018-06-22T11:14:08.017Z,81.60
2018-06-22T11:15:08.061Z,79.52
2018-06-22T11:16:11.138Z,83.92
2018-06-22T11:18:08.921Z,80.55
2018-06-22T11:20:08.334Z,75.63
2018-06-22T11:21:08.033Z,73.49
2018-06-22T11:22:07.963Z,71.62
2018-06-22T11:23:08.270Z,72.39
2018-06-22T11:24:07.961Z,73.26
2018-06-22T11:25:09.272Z,74.76
2018-06-22T11:27:07.974Z,86.09
2018-06-22T11:28:08.187Z,87.05
2018-06-22T11:29:07.930Z,83.48
2018-06-22T11:30:07.968Z,85.88
2018-06-22T11:31:08.234Z,83.91
2018-06-22T11:32:07.943Z,81.12
2018-06-22T11:33:07.957Z,79.79
2018-06-22T11:34:07.907Z,89.26
2018-06-22T11:35:07.917Z,94.64
2018-06-22T11:36:07.890Z,97.86
2018-06-22T11:37:08.203Z,99.99
2018-06-22T11:38:07.881Z,95.65
2018-06-22T11:39:08.019Z,93.15
2018-06-22T11:40:07.927Z,89.98
2018-06-22T11:41:07.956Z,84.06
2018-06-22T11:42:07.846Z,79.33
2018-06-22T11:43:08.138Z,77.25
2018-06-22T11:44:07.848Z,72.08
2018-06-22T11:45:07.839Z,69.77
2018-06-22T11:46:07.819Z,70.79
2018-06-22T11:47:07.814Z,68.35
2018-06-22T11:48:07.815Z,68.10
2018-06-22T11:49:08.094Z,68.99
2018-06-22T11:50:07.786Z,69.06
2018-06-22T11:51:08.377Z,72.26
2018-06-22T11:52:07.872Z,72.78
2018-06-22T11:53:07.771Z,70.89
2018-06-22T11:54:07.769Z,69.60
2018-06-22T11:55:08.066Z,70.34
2018-06-22T11:56:07.753Z,73.77
2018-06-22T11:57:07.820Z,79.02
2018-06-22T11:58:07.740Z,74.73
2018-06-22T11:59:07.805Z,74.98
2018-06-22T12:00:07.764Z,81.99
2018-06-22T12:02:07.722Z,73.99
2018-06-22T12:03:07.722Z,72.32
2018-06-22T12:04:07.709Z,74.82
2018-06-22T12:05:07.711Z,70.70
2018-06-22T12:07:07.685Z,70.31
2018-06-22T12:08:07.678Z,68.68
2018-06-22T12:09:07.670Z,66.07
2018-06-22T12:10:07.659Z,64.37
2018-06-22T12:11:07.666Z,62.99
2018-06-22T12:12:08.461Z,61.83
2018-06-22T12:13:07.653Z,59.87
2018-06-22T12:14:07.682Z,58.52
2018-06-22T12:15:07.680Z,57.49
2018-06-22T12:16:07.638Z,57.39
2018-06-22T12:17:07.625Z,57.29
2018-06-22T12:18:07.933Z,56.94
2018-06-22T12:19:07.697Z,57.14
2018-06-22T12:20:07.626Z,57.82
2018-06-22T12:21:07.677Z,61.25
2018-06-22T12:22:07.629Z,61.07
2018-06-22T12:23:07.600Z,60.48
2018-06-22T12:24:07.877Z,58.48
2018-06-22T12:25:07.669Z,58.72
2018-06-22T12:26:07.587Z,58.14
2018-06-22T12:27:07.663Z,58.88
2018-06-22T12:28:07.820Z,59.72
2018-06-22T12:29:07.737Z,61.49
2018-06-22T12:30:07.855Z,63.31
2018-06-22T12:31:07.547Z,65.59
2018-06-22T12:32:07.544Z,66.27
2018-06-22T12:33:07.590Z,64.63
2018-06-22T12:34:07.530Z,63.28
2018-06-22T12:35:07.541Z,62.15
2018-06-22T12:36:07.815Z,60.45
2018-06-22T12:37:07.506Z,58.65
2018-06-22T12:38:07.496Z,56.11
2018-06-22T12:40:07.517Z,54.96
2018-06-22T12:41:07.503Z,55.66
2018-06-22T12:42:07.778Z,56.01
2018-06-22T12:43:07.473Z,56.79
2018-06-22T12:44:07.476Z,56.69
2018-06-22T12:45:07.637Z,57.05
2018-06-22T12:46:07.457Z,58.20
2018-06-22T12:47:07.831Z,57.82
2018-06-22T12:48:07.891Z,57.01
2018-06-22T12:49:07.434Z,55.78
2018-06-22T12:50:07.517Z,55.52
2018-06-22T12:51:07.864Z,55.05
2018-06-22T12:52:07.422Z,56.21
2018-06-22T12:53:07.424Z,55.12
2018-06-22T12:54:07.435Z,57.07
2018-06-22T12:55:07.429Z,55.70
2018-06-22T12:56:07.419Z,56.18
2018-06-22T12:57:07.398Z,55.34
2018-06-22T12:58:07.495Z,54.96
2018-06-22T12:59:07.395Z,56.11
2018-06-22T13:00:07.693Z,55.08
2018-06-22T13:01:07.408Z,52.69
2018-06-22T13:02:07.377Z,54.05
2018-06-22T13:03:07.454Z,50.98
2018-06-22T13:04:07.422Z,52.11
2018-06-22T13:05:07.359Z,51.73
2018-06-22T13:06:07.345Z,52.06
2018-06-22T13:07:07.639Z,52.59
2018-06-22T13:08:07.347Z,53.91
2018-06-22T13:09:07.421Z,55.62
2018-06-22T13:11:07.331Z,59.37
2018-06-22T13:12:07.309Z,58.72
2018-06-22T13:13:07.623Z,55.87
2018-06-22T13:14:07.362Z,54.28
2018-06-22T13:15:07.343Z,53.92
2018-06-22T13:16:07.369Z,53.30
2018-06-22T13:17:07.344Z,53.20
2018-06-22T13:18:07.389Z,52.23
2018-06-22T13:19:07.610Z,50.57
2018-06-22T13:20:07.267Z,50.67
2018-06-22T13:21:07.351Z,51.46
2018-06-22T13:22:07.439Z,52.01